createdAt,value
2022-07-27T00:01:39.370Z,1016.3
2022-07-27T00:06:31.727Z,1016.28
2022-07-27T00:11:24.341Z,1016.23
2022-07-27T00:16:16.848Z,1016.27
2022-07-27T00:21:09.314Z,1016.28
2022-07-27T00:26:02.096Z,1016.24
2022-07-27T00:30:54.710Z,1016.18
2022-07-27T00:35:47.264Z,1016.26
2022-07-27T00:40:39.988Z,1016.19
2022-07-27T00:45:32.844Z,1016.26
2022-07-27T00:50:25.697Z,1016.3
2022-07-27T00:55:18.153Z,1016.34
2022-07-27T01:00:10.768Z,1016.32
2022-07-27T01:05:03.569Z,1016.41
2022-07-27T01:09:56.175Z,1016.41
2022-07-27T01:14:48.496Z,1016.4
2022-07-27T01:19:40.966Z,1016.28
2022-07-27T01:24:33.221Z,1016.29
2022-07-27T01:29:25.914Z,1016.24
2022-07-27T01:34:18.618Z,1016.36
2022-07-27T01:39:11.588Z,1016.33
2022-07-27T01:44:04.153Z,1016.4
2022-07-27T01:48:56.950Z,1016.35
2022-07-27T01:53:49.503Z,1016.39
2022-07-27T01:58:42.369Z,1016.39
2022-07-27T02:03:34.945Z,1016.49
2022-07-27T02:08:27.578Z,1016.47
2022-07-27T02:13:22.642Z,1016.43
2022-07-27T02:18:26.705Z,1016.42
2022-07-27T02:23:05.689Z,1016.42
2022-07-27T02:27:58.180Z,1016.5
2022-07-27T02:32:50.906Z,1016.45
2022-07-27T02:37:43.626Z,1016.47
2022-07-27T02:42:36.249Z,1016.46
2022-07-27T02:47:28.739Z,1016.42
2022-07-27T02:52:21.262Z,1016.57
2022-07-27T02:57:13.783Z,1016.59
2022-07-27T03:02:06.319Z,1016.51
2022-07-27T03:06:59.057Z,1016.46
2022-07-27T03:11:51.226Z,1016.47
2022-07-27T03:16:43.934Z,1016.48
2022-07-27T03:21:36.336Z,1016.39
2022-07-27T03:26:29.142Z,1016.47
2022-07-27T03:31:21.606Z,1016.59
2022-07-27T03:36:14.106Z,1016.66
2022-07-27T03:41:06.591Z,1016.64
2022-07-27T03:45:59.532Z,1016.63
2022-07-27T03:50:51.904Z,1016.62
2022-07-27T03:55:44.462Z,1016.68
2022-07-27T04:00:37.059Z,1016.75
2022-07-27T04:05:29.721Z,1016.78
2022-07-27T04:10:22.034Z,1016.74
2022-07-27T04:15:14.651Z,1016.82
2022-07-27T04:20:07.291Z,1016.77
2022-07-27T04:29:52.436Z,1016.84
2022-07-27T04:39:37.499Z,1016.84
2022-07-27T04:49:21.267Z,1017
2022-07-27T04:59:06.064Z,1017.09
2022-07-27T05:03:58.949Z,1017.17
2022-07-27T05:08:51.634Z,1017.18
2022-07-27T05:13:43.829Z,1017.16
2022-07-27T05:18:36.029Z,1017.19
2022-07-27T05:23:28.191Z,1017.29
2022-07-27T05:28:20.957Z,1017.37
2022-07-27T05:33:14.050Z,1017.45
2022-07-27T05:38:06.947Z,1017.54
2022-07-27T05:42:59.412Z,1017.59
2022-07-27T05:47:51.985Z,1017.72
2022-07-27T05:52:43.912Z,1017.71
2022-07-27T05:57:36.673Z,1017.77
2022-07-27T06:02:29.412Z,1017.93
2022-07-27T06:07:21.174Z,1018.01
2022-07-27T06:12:13.895Z,1018.02
2022-07-27T06:17:05.824Z,1017.99
2022-07-27T06:21:58.507Z,1017.9
2022-07-27T06:26:51.089Z,1017.95
2022-07-27T06:31:42.990Z,1017.99
2022-07-27T06:36:34.945Z,1018.03
2022-07-27T06:41:27.320Z,1018.12
2022-07-27T06:46:19.745Z,1018.07
2022-07-27T06:51:12.724Z,1018.19
2022-07-27T06:56:04.848Z,1018.21
2022-07-27T07:00:57.835Z,1018.08
2022-07-27T07:05:49.855Z,1018.07
2022-07-27T07:10:42.491Z,1018.1
2022-07-27T07:15:35.114Z,1018.11
2022-07-27T07:20:27.811Z,1018.1
2022-07-27T07:25:20.521Z,1018.2
2022-07-27T07:30:12.948Z,1018.18
2022-07-27T07:35:05.083Z,1018.27
2022-07-27T07:40:04.464Z,1018.22
2022-07-27T07:44:51.449Z,1018.12
2022-07-27T07:49:44.326Z,1018.11
2022-07-27T07:54:36.907Z,1018.15
2022-07-27T07:59:29.475Z,1018.14
2022-07-27T08:04:21.831Z,1018.16
2022-07-27T08:09:14.950Z,1018.14
2022-07-27T08:14:07.102Z,1018.13
2022-07-27T08:18:59.619Z,1018.15
2022-07-27T08:23:52.356Z,1018.17
2022-07-27T08:28:45.055Z,1018.23
2022-07-27T08:33:39.865Z,1018.27
2022-07-27T08:38:30.199Z,1018.3
2022-07-27T08:43:25.116Z,1018.29
2022-07-27T08:48:15.612Z,1018.43
2022-07-27T08:53:08.341Z,1018.38
2022-07-27T08:58:03.298Z,1018.31
2022-07-27T09:02:53.808Z,1018.3
2022-07-27T09:07:46.510Z,1018.24
2022-07-27T09:12:38.929Z,1018.25
2022-07-27T09:17:48.824Z,1018.15
2022-07-27T09:22:24.212Z,1018.12
2022-07-27T09:27:16.957Z,1018.17
2022-07-27T09:32:09.418Z,1018.09
2022-07-27T09:37:02.234Z,1018
2022-07-27T09:41:55.435Z,1017.97
2022-07-27T09:46:47.253Z,1017.99
2022-07-27T09:52:08.320Z,1017.95
2022-07-27T09:56:32.353Z,1017.92
2022-07-27T10:01:25.067Z,1018.01
2022-07-27T10:06:17.594Z,1018.04
2022-07-27T10:11:10.297Z,1018.06
2022-07-27T10:16:02.776Z,1018.11
2022-07-27T10:20:55.588Z,1018.04
2022-07-27T10:25:48.415Z,1018.04
2022-07-27T10:30:41.029Z,1018.09
2022-07-27T10:35:33.734Z,1018.13
2022-07-27T10:40:26.585Z,1018.08
2022-07-27T10:45:19.439Z,1018.06
2022-07-27T10:50:12.015Z,1017.98
2022-07-27T10:55:04.255Z,1018.02
2022-07-27T11:04:49.468Z,1017.97
2022-07-27T11:14:34.408Z,1018.02
2022-07-27T11:24:19.969Z,1018.05
2022-07-27T11:34:05.222Z,1017.94
2022-07-27T11:43:50.292Z,1017.88
2022-07-27T11:49:04.199Z,1017.88
2022-07-27T11:53:35.906Z,1017.88
2022-07-27T11:58:28.486Z,1017.8
2022-07-27T12:03:20.981Z,1017.84
2022-07-27T12:08:13.609Z,1017.82
2022-07-27T12:13:05.781Z,1017.75
2022-07-27T12:17:58.429Z,1017.73
2022-07-27T12:22:50.963Z,1017.63
2022-07-27T12:27:43.533Z,1017.62
2022-07-27T12:32:36.524Z,1017.56
2022-07-27T12:37:29.117Z,1017.58
2022-07-27T12:42:21.535Z,1017.48
2022-07-27T12:47:14.136Z,1017.44
2022-07-27T12:52:06.497Z,1017.41
2022-07-27T12:56:59.166Z,1017.37
2022-07-27T13:01:52.059Z,1017.38
2022-07-27T13:06:44.448Z,1017.34
2022-07-27T13:11:37.018Z,1017.3
2022-07-27T13:16:29.676Z,1017.31
2022-07-27T13:21:22.126Z,1017.41
2022-07-27T13:26:14.753Z,1017.43
2022-07-27T13:31:07.261Z,1017.49
2022-07-27T13:36:00.333Z,1017.45
2022-07-27T13:40:52.487Z,1017.46
2022-07-27T13:45:45.053Z,1017.44
2022-07-27T13:50:37.687Z,1017.4
2022-07-27T13:55:32.475Z,1017.42
2022-07-27T14:00:24.679Z,1017.41
2022-07-27T14:05:18.396Z,1017.37
2022-07-27T14:10:10.221Z,1017.35
2022-07-27T14:15:02.667Z,1017.33
2022-07-27T14:19:55.221Z,1017.27
2022-07-27T14:24:48.061Z,1017.32
2022-07-27T14:29:40.826Z,1017.28
2022-07-27T14:34:33.571Z,1017.32
2022-07-27T14:39:25.915Z,1017.34
2022-07-27T14:44:18.850Z,1017.32
2022-07-27T14:49:10.837Z,1017.24
2022-07-27T14:54:03.631Z,1017.16
2022-07-27T14:58:56.056Z,1017.16
2022-07-27T15:03:48.595Z,1017.14
2022-07-27T15:08:41.186Z,1017.15
2022-07-27T15:13:34.111Z,1017.14
2022-07-27T15:18:26.846Z,1017.1
2022-07-27T15:23:19.533Z,1017.01
2022-07-27T15:28:12.379Z,1017
2022-07-27T15:33:05.071Z,1016.99
2022-07-27T15:37:57.730Z,1016.93
2022-07-27T15:42:50.257Z,1016.9
2022-07-27T15:47:42.911Z,1016.86
2022-07-27T15:52:35.574Z,1016.88
2022-07-27T15:57:28.302Z,1016.8
2022-07-27T16:02:24.683Z,1016.7
2022-07-27T16:07:13.271Z,1016.67
2022-07-27T16:12:05.878Z,1016.66
2022-07-27T16:16:59.458Z,1016.63
2022-07-27T16:21:53.429Z,1016.58
2022-07-27T16:26:43.786Z,1016.57
2022-07-27T16:31:36.502Z,1016.54
2022-07-27T16:36:34.072Z,1016.49
2022-07-27T16:41:23.274Z,1016.4
2022-07-27T16:46:15.799Z,1016.4
2022-07-27T16:51:08.447Z,1016.38
2022-07-27T16:56:00.663Z,1016.43
2022-07-27T17:00:53.352Z,1016.39
2022-07-27T17:05:45.852Z,1016.45
2022-07-27T17:10:38.546Z,1016.49
2022-07-27T17:20:27.917Z,1016.46
2022-07-27T17:30:09.140Z,1016.52
2022-07-27T17:39:54.112Z,1016.64
2022-07-27T17:49:39.490Z,1016.78
2022-07-27T17:54:32.114Z,1016.74
2022-07-27T17:59:37.385Z,1016.76
2022-07-27T18:04:16.919Z,1016.75
2022-07-27T18:09:09.494Z,1016.78
2022-07-27T18:14:02.195Z,1016.74
2022-07-27T18:18:54.890Z,1016.77
2022-07-27T18:23:47.218Z,1016.78
2022-07-27T18:28:40.363Z,1016.79
2022-07-27T18:33:35.047Z,1016.73
2022-07-27T18:38:25.428Z,1016.72
2022-07-27T18:43:18.035Z,1016.71
2022-07-27T18:48:11.014Z,1016.71
2022-07-27T18:53:03.346Z,1016.77
2022-07-27T18:57:55.662Z,1016.78
2022-07-27T19:02:47.946Z,1016.78
2022-07-27T19:07:40.429Z,1016.89
2022-07-27T19:12:33.006Z,1017.01
2022-07-27T19:17:25.801Z,1017.1
2022-07-27T19:22:18.263Z,1017.1
2022-07-27T19:27:10.818Z,1017.14
2022-07-27T19:32:03.274Z,1017.26
2022-07-27T19:36:55.600Z,1017.29
2022-07-27T19:41:48.342Z,1017.35
2022-07-27T19:46:40.991Z,1017.37
2022-07-27T19:51:33.222Z,1017.42
2022-07-27T20:01:14.046Z,1017.55
2022-07-27T20:06:07.542Z,1017.56
2022-07-27T20:11:00.104Z,1017.7
2022-07-27T20:15:52.533Z,1017.76
2022-07-27T20:20:45.046Z,1017.83
2022-07-27T20:25:37.692Z,1017.86
2022-07-27T20:30:30.523Z,1017.89
2022-07-27T20:35:23.070Z,1017.97
2022-07-27T20:40:15.544Z,1018.03
2022-07-27T20:45:07.974Z,1018
2022-07-27T20:50:00.612Z,1018.01
2022-07-27T20:54:53.092Z,1018.06
2022-07-27T20:59:45.525Z,1018.01
2022-07-27T21:04:37.997Z,1018.07
2022-07-27T21:09:30.573Z,1018.12
2022-07-27T21:14:22.796Z,1018.21
2022-07-27T21:19:15.701Z,1018.21
2022-07-27T21:24:07.749Z,1018.31
2022-07-27T21:29:00.348Z,1018.37
2022-07-27T21:33:53.941Z,1018.41
2022-07-27T21:38:46.376Z,1018.42
2022-07-27T21:43:38.993Z,1018.5
2022-07-27T21:48:31.665Z,1018.57
2022-07-27T21:53:24.207Z,1018.54
2022-07-27T21:58:16.754Z,1018.53
2022-07-27T22:03:09.142Z,1018.56
2022-07-27T22:08:01.704Z,1018.6
2022-07-27T22:12:54.285Z,1018.59
2022-07-27T22:17:50.664Z,1018.65
2022-07-27T22:22:39.517Z,1018.7
2022-07-27T22:27:32.173Z,1018.76
2022-07-27T22:32:24.741Z,1018.78
2022-07-27T22:37:17.346Z,1018.84
2022-07-27T22:42:09.725Z,1018.84
2022-07-27T22:47:02.569Z,1018.84
2022-07-27T22:56:47.577Z,1018.94
2022-07-27T23:06:32.900Z,1018.95
2022-07-27T23:16:17.893Z,1018.96
2022-07-27T23:21:10.257Z,1019.01
2022-07-27T23:26:02.892Z,1019.01
2022-07-27T23:30:55.658Z,1018.91
2022-07-27T23:35:48.085Z,1018.91
2022-07-27T23:40:40.714Z,1018.94
2022-07-27T23:45:33.596Z,1018.93
2022-07-27T23:50:26.230Z,1018.94
2022-07-27T23:55:18.626Z,1018.91
